Time;durP1;ratioP1;P1;durP2;ratioP2;P2;SDS_P1;SDS_P2;PMS_P1;PMS_P2;Temp;Humidity;BMP_temperature;BMP_pressure;BME280_temperature;BME280_humidity;BME280_pressure;Samples;Min_cycle;Max_cycle;Signal;HPM_P1;HPM_P2
2022/10/31 00:01:15;;;;;;;4.60;1.70;;;;;;;;;;1675484;84;21031;-74
2022/10/31 00:03:41;;;;;;;2.98;1.70;;;;;;;;;;1676530;84;21060;-74
2022/10/31 00:06:08;;;;;;;3.42;1.87;;;;;;;;;;1684553;84;21055;-75
2022/10/31 00:08:35;;;;;;;4.58;2.10;;;;;;;;;;1677312;84;21573;-74
2022/10/31 00:11:03;;;;;;;2.80;2.25;;;;;;;;;;1682703;84;21113;-74
2022/10/31 00:13:30;;;;;;;4.55;1.90;;;;;;;;;;1681022;84;21092;-75
2022/10/31 00:15:56;;;;;;;5.17;1.70;;;;;;;;;;1663287;84;21617;-75
2022/10/31 00:18:23;;;;;;;3.75;2.15;;;;;;;;;;1680220;84;21056;-74
2022/10/31 00:20:49;;;;;;;3.20;2.00;;;;;;;;;;1667812;84;21115;-74
2022/10/31 00:23:15;;;;;;;2.62;1.90;;;;;;;;;;1682846;83;21076;-74
2022/10/31 00:25:44;;;;;;;2.87;1.82;;;;;;;;;;1720345;83;21103;-74
2022/10/31 00:28:11;;;;;;;5.33;1.85;;;;;;;;;;1722336;83;22147;-74
2022/10/31 00:30:38;;;;;;;2.58;1.70;;;;;;;;;;1701911;84;21129;-74
2022/10/31 00:33:05;;;;;;;4.87;2.20;;;;;;;;;;1682775;83;22179;-73
2022/10/31 00:35:32;;;;;;;4.37;1.65;;;;;;;;;;1679755;83;21061;-74
2022/10/31 00:37:58;;;;;;;5.55;1.90;;;;;;;;;;1685762;84;21117;-73
2022/10/31 00:40:26;;;;;;;2.98;1.90;;;;;;;;;;1678737;84;21032;-75
2022/10/31 00:42:53;;;;;;;5.05;1.92;;;;;;;;;;1665296;83;21079;-75
2022/10/31 00:45:19;;;;;;;5.45;1.92;;;;;;;;;;1689681;84;21091;-74
2022/10/31 00:47:46;;;;;;;5.35;1.90;;;;;;;;;;1663475;85;21030;-75
2022/10/31 00:50:13;;;;;;;2.25;1.70;;;;;;;;;;1680432;84;21103;-75
2022/10/31 00:52:40;;;;;;;3.08;1.85;;;;;;;;;;1681356;83;21055;-74
2022/10/31 00:55:06;;;;;;;6.40;2.00;;;;;;;;;;1678591;84;21021;-75
2022/10/31 00:57:33;;;;;;;3.00;2.12;;;;;;;;;;1666629;84;21159;-75
2022/10/31 00:59:59;;;;;;;2.77;1.87;;;;;;;;;;1670395;84;21056;-75
2022/10/31 01:02:27;;;;;;;3.35;1.80;;;;;;;;;;1666851;84;21527;-74
2022/10/31 01:04:53;;;;;;;4.83;2.10;;;;;;;;;;1685959;84;21048;-73
2022/10/31 01:07:21;;;;;;;2.20;1.60;;;;;;;;;;1699837;84;22474;-74
2022/10/31 01:09:49;;;;;;;2.58;1.82;;;;;;;;;;1694481;84;21051;-74
2022/10/31 01:12:16;;;;;;;3.85;1.98;;;;;;;;;;1686712;84;21097;-75
2022/10/31 01:14:44;;;;;;;4.05;2.00;;;;;;;;;;1699964;84;21018;-74
2022/10/31 01:17:11;;;;;;;5.65;1.67;;;;;;;;;;1686979;84;21048;-74
2022/10/31 01:19:37;;;;;;;3.20;1.77;;;;;;;;;;1678703;84;21063;-74
2022/10/31 01:22:03;;;;;;;5.83;1.90;;;;;;;;;;1685011;84;21636;-74
2022/10/31 01:24:30;;;;;;;3.87;1.70;;;;;;;;;;1677016;84;21127;-75
2022/10/31 01:26:56;;;;;;;3.00;2.00;;;;;;;;;;1705057;83;21012;-75
2022/10/31 01:29:23;;;;;;;3.22;1.72;;;;;;;;;;1693439;83;21096;-74
2022/10/31 01:31:49;;;;;;;2.50;1.67;;;;;;;;;;1716106;83;21038;-75
2022/10/31 01:34:16;;;;;;;7.53;1.92;;;;;;;;;;1698013;83;21053;-74
2022/10/31 01:36:43;;;;;;;3.05;1.87;;;;;;;;;;1713081;82;21040;-74
2022/10/31 01:39:10;;;;;;;4.80;2.17;;;;;;;;;;1700606;83;21122;-74
2022/10/31 01:41:37;;;;;;;3.60;1.80;;;;;;;;;;1690623;83;21084;-74
2022/10/31 01:44:15;;;;;;;4.83;2.70;;;;;;;;;;1703770;83;21544;-75
2022/10/31 01:46:42;;;;;;;4.80;2.05;;;;;;;;;;1708125;83;21453;-75
2022/10/31 01:49:13;;;;;;;3.98;1.98;;;;;;;;;;1711607;83;21356;-76
2022/10/31 01:51:41;;;;;;;2.72;1.77;;;;;;;;;;1706635;83;21080;-74
2022/10/31 01:54:10;;;;;;;3.30;2.00;;;;;;;;;;1704053;83;21535;-76
2022/10/31 01:56:39;;;;;;;5.60;1.95;;;;;;;;;;1708109;83;21087;-75
2022/10/31 01:59:05;;;;;;;3.40;1.72;;;;;;;;;;1710400;82;21104;-75
2022/10/31 02:04:22;;;;;;;3.15;1.70;;;;;;;;;;1719685;80;76270;-74
2022/10/31 02:06:53;;;;;;;3.65;1.87;;;;;;;;;;1716676;82;21021;-75
2022/10/31 02:09:24;;;;;;;4.20;1.72;;;;;;;;;;1719672;82;21679;-74
2022/10/31 02:11:48;;;;;;;4.30;1.92;;;;;;;;;;1723722;82;21005;-75
2022/10/31 02:14:15;;;;;;;4.67;1.87;;;;;;;;;;1735772;81;21071;-75
2022/10/31 02:16:42;;;;;;;4.42;1.95;;;;;;;;;;1725088;82;21068;-75
2022/10/31 02:19:09;;;;;;;4.75;2.72;;;;;;;;;;1727122;81;21563;-75
2022/10/31 02:21:55;;;;;;;2.70;1.90;;;;;;;;;;1721207;82;21016;-74
2022/10/31 02:24:23;;;;;;;2.55;1.75;;;;;;;;;;1724357;81;21108;-75
2022/10/31 02:27:01;;;;;;;2.67;1.80;;;;;;;;;;1707234;81;21013;-74
2022/10/31 02:29:33;;;;;;;5.10;2.02;;;;;;;;;;1716511;82;21068;-75
2022/10/31 02:32:08;;;;;;;3.47;2.00;;;;;;;;;;1715073;82;21044;-75
2022/10/31 02:34:35;;;;;;;5.45;2.10;;;;;;;;;;1722383;82;21598;-75
2022/10/31 02:37:03;;;;;;;4.15;1.85;;;;;;;;;;1734562;81;21537;-74
2022/10/31 02:39:32;;;;;;;5.00;2.10;;;;;;;;;;1719653;82;21087;-75
2022/10/31 02:42:18;;;;;;;2.75;1.70;;;;;;;;;;1716666;80;21085;-74
2022/10/31 02:44:46;;;;;;;3.42;1.77;;;;;;;;;;1696042;82;21103;-74
2022/10/31 02:47:18;;;;;;;4.42;2.08;;;;;;;;;;1731959;82;21080;-74
2022/10/31 02:49:58;;;;;;;3.05;1.85;;;;;;;;;;1708156;82;21072;-73
2022/10/31 02:52:25;;;;;;;4.67;2.00;;;;;;;;;;1718607;81;21045;-74
2022/10/31 02:54:52;;;;;;;5.08;1.90;;;;;;;;;;1731874;82;21135;-74
2022/10/31 02:57:32;;;;;;;3.25;2.00;;;;;;;;;;1719304;82;21111;-75
2022/10/31 03:00:04;;;;;;;2.77;1.85;;;;;;;;;;1710062;82;21092;-74
2022/10/31 03:02:44;;;;;;;3.87;2.08;;;;;;;;;;1709422;82;21029;-74
2022/10/31 03:05:18;;;;;;;4.78;2.00;;;;;;;;;;1683040;84;21057;-74
2022/10/31 03:07:59;;;;;;;5.40;2.10;;;;;;;;;;1680006;84;21642;-75
2022/10/31 03:10:28;;;;;;;4.22;2.10;;;;;;;;;;1662609;84;21079;-74
2022/10/31 03:13:11;;;;;;;5.37;2.05;;;;;;;;;;1673422;84;21045;-74
2022/10/31 03:15:40;;;;;;;2.35;1.70;;;;;;;;;;1707667;83;21874;-74
2022/10/31 03:18:15;;;;;;;5.42;1.98;;;;;;;;;;1681989;83;21076;-75
2022/10/31 03:20:46;;;;;;;2.72;1.85;;;;;;;;;;1656132;85;21143;-75
2022/10/31 03:23:14;;;;;;;2.25;1.87;;;;;;;;;;1641741;85;21085;-75
2022/10/31 03:25:40;;;;;;;5.45;2.35;;;;;;;;;;1664750;85;21025;-75
2022/10/31 03:28:08;;;;;;;3.35;1.92;;;;;;;;;;1642237;85;21199;-75
2022/10/31 03:30:35;;;;;;;4.28;1.92;;;;;;;;;;1626092;85;21544;-75
2022/10/31 03:33:02;;;;;;;5.05;2.10;;;;;;;;;;1690829;84;21854;-76
2022/10/31 03:35:29;;;;;;;6.05;2.12;;;;;;;;;;1680038;83;21121;-75
2022/10/31 03:37:55;;;;;;;3.83;1.92;;;;;;;;;;1690022;84;21698;-75
2022/10/31 03:40:22;;;;;;;4.37;2.00;;;;;;;;;;1685890;84;21033;-75
2022/10/31 03:42:55;;;;;;;4.37;1.80;;;;;;;;;;1679912;84;21028;-75
2022/10/31 03:45:23;;;;;;;4.83;2.25;;;;;;;;;;1663290;84;21531;-74
2022/10/31 03:47:50;;;;;;;7.00;2.30;;;;;;;;;;1689607;84;21156;-74
2022/10/31 03:50:16;;;;;;;3.70;1.90;;;;;;;;;;1697851;83;21033;-74
2022/10/31 03:52:47;;;;;;;6.00;2.10;;;;;;;;;;1669871;83;21044;-74
2022/10/31 03:55:20;;;;;;;3.65;1.82;;;;;;;;;;1698450;83;21187;-74
2022/10/31 03:57:54;;;;;;;3.37;1.75;;;;;;;;;;1680526;83;21069;-73
2022/10/31 04:00:20;;;;;;;2.70;1.72;;;;;;;;;;1690263;83;21144;-73
2022/10/31 04:02:49;;;;;;;3.17;1.67;;;;;;;;;;1700516;83;21085;-75
2022/10/31 04:05:15;;;;;;;2.87;1.72;;;;;;;;;;1686968;83;21060;-74
2022/10/31 04:07:43;;;;;;;4.28;1.98;;;;;;;;;;1703292;82;21510;-75
2022/10/31 04:10:11;;;;;;;3.58;1.87;;;;;;;;;;1694067;83;21093;-74
2022/10/31 04:12:38;;;;;;;3.60;1.62;;;;;;;;;;1667063;83;21068;-74
2022/10/31 04:15:06;;;;;;;5.42;1.62;;;;;;;;;;1714932;82;21021;-74
2022/10/31 04:17:34;;;;;;;4.12;1.60;;;;;;;;;;1689212;83;21532;-75
2022/10/31 04:20:00;;;;;;;2.45;1.52;;;;;;;;;;1690741;83;21090;-74
2022/10/31 04:22:28;;;;;;;3.58;1.82;;;;;;;;;;1680347;83;20992;-74
2022/10/31 04:24:54;;;;;;;4.62;1.87;;;;;;;;;;1704123;83;21042;-75
2022/10/31 04:27:20;;;;;;;2.37;1.50;;;;;;;;;;1699853;83;21021;-74
2022/10/31 04:29:48;;;;;;;1.90;1.45;;;;;;;;;;1690423;83;21139;-74
2022/10/31 04:32:15;;;;;;;2.35;1.67;;;;;;;;;;1705927;83;21089;-75
2022/10/31 04:34:41;;;;;;;3.22;1.67;;;;;;;;;;1693232;83;21088;-75
2022/10/31 04:37:07;;;;;;;2.47;1.35;;;;;;;;;;1703300;83;21088;-75
2022/10/31 04:39:34;;;;;;;2.05;1.40;;;;;;;;;;1708069;83;21049;-75
2022/10/31 04:42:02;;;;;;;4.58;1.40;;;;;;;;;;1697842;83;21575;-75
2022/10/31 04:44:28;;;;;;;1.82;1.30;;;;;;;;;;1702860;83;21021;-75
2022/10/31 04:46:54;;;;;;;2.25;1.20;;;;;;;;;;1688289;83;21033;-76
2022/10/31 04:49:22;;;;;;;1.65;1.20;;;;;;;;;;1684402;83;22480;-75
2022/10/31 04:51:48;;;;;;;2.20;1.15;;;;;;;;;;1701049;83;21080;-75
2022/10/31 04:54:15;;;;;;;1.55;1.12;;;;;;;;;;1698500;83;21075;-75
2022/10/31 04:56:43;;;;;;;2.12;1.40;;;;;;;;;;1686336;83;21136;-74
2022/10/31 04:59:11;;;;;;;2.55;1.62;;;;;;;;;;1685170;83;21072;-74
2022/10/31 05:01:40;;;;;;;1.95;1.27;;;;;;;;;;1690125;82;21067;-74
2022/10/31 05:04:06;;;;;;;1.17;1.07;;;;;;;;;;1689379;83;21139;-74
2022/10/31 05:06:34;;;;;;;2.33;1.30;;;;;;;;;;1693904;83;21049;-74
2022/10/31 05:09:00;;;;;;;1.27;1.17;;;;;;;;;;1705484;83;21024;-74
2022/10/31 05:11:26;;;;;;;1.90;1.20;;;;;;;;;;1684236;83;21687;-74
2022/10/31 05:13:53;;;;;;;2.08;1.27;;;;;;;;;;1688888;83;21076;-75
2022/10/31 05:16:21;;;;;;;2.58;1.20;;;;;;;;;;1697521;83;21072;-75
2022/10/31 05:19:06;;;;;;;2.02;1.40;;;;;;;;;;1703635;83;21477;-74
2022/10/31 05:21:50;;;;;;;3.02;1.30;;;;;;;;;;1705884;83;21056;-75
2022/10/31 05:24:21;;;;;;;2.50;1.20;;;;;;;;;;1707972;83;21057;-76
2022/10/31 05:26:46;;;;;;;1.77;1.22;;;;;;;;;;1705515;83;21044;-75
2022/10/31 05:29:13;;;;;;;1.27;1.17;;;;;;;;;;1707331;83;21081;-75
2022/10/31 05:31:39;;;;;;;1.17;1.10;;;;;;;;;;1689707;83;21079;-75
2022/10/31 05:34:06;;;;;;;2.83;1.05;;;;;;;;;;1695189;83;21071;-75
2022/10/31 05:36:37;;;;;;;2.10;1.30;;;;;;;;;;1692267;83;21652;-75
2022/10/31 05:39:05;;;;;;;2.08;1.45;;;;;;;;;;1710746;83;21072;-74
2022/10/31 05:41:35;;;;;;;1.40;1.30;;;;;;;;;;1693418;83;21567;-75
2022/10/31 05:44:05;;;;;;;1.65;1.27;;;;;;;;;;1681122;83;21052;-75
2022/10/31 05:46:34;;;;;;;2.85;1.25;;;;;;;;;;1707948;83;21064;-75
2022/10/31 05:49:11;;;;;;;2.55;1.57;;;;;;;;;;1691989;83;21033;-75
2022/10/31 05:51:55;;;;;;;1.42;1.20;;;;;;;;;;1688019;83;21060;-75
2022/10/31 05:54:23;;;;;;;2.72;1.62;;;;;;;;;;1679558;84;21590;-76
2022/10/31 05:56:49;;;;;;;4.05;1.60;;;;;;;;;;1653015;84;21081;-74
2022/10/31 05:59:16;;;;;;;2.05;1.42;;;;;;;;;;1677488;84;21065;-73
2022/10/31 06:01:43;;;;;;;3.25;1.98;;;;;;;;;;1684550;84;21072;-75
2022/10/31 06:07:07;;;;;;;1.98;1.60;;;;;;;;;;1736268;78;74810;-68
2022/10/31 06:09:33;;;;;;;2.27;1.27;;;;;;;;;;1734294;80;20988;-66
2022/10/31 06:12:00;;;;;;;1.87;1.25;;;;;;;;;;1721993;80;21115;-66
2022/10/31 06:14:41;;;;;;;2.02;1.50;;;;;;;;;;1708288;80;21012;-67
2022/10/31 06:17:07;;;;;;;2.02;1.40;;;;;;;;;;1731410;81;21028;-66
2022/10/31 06:19:45;;;;;;;3.70;1.52;;;;;;;;;;1734462;81;21437;-66
2022/10/31 06:22:13;;;;;;;1.65;1.30;;;;;;;;;;1736503;80;21582;-65
2022/10/31 06:24:41;;;;;;;2.37;1.50;;;;;;;;;;1727476;81;21103;-66
2022/10/31 06:27:21;;;;;;;2.58;1.50;;;;;;;;;;1734226;80;21555;-67
2022/10/31 06:29:47;;;;;;;4.42;1.32;;;;;;;;;;1731778;79;21767;-66
2022/10/31 06:32:21;;;;;;;1.65;1.32;;;;;;;;;;1723586;79;21076;-66
2022/10/31 06:34:50;;;;;;;4.05;1.30;;;;;;;;;;1748061;79;21047;-66
2022/10/31 06:37:16;;;;;;;3.00;1.50;;;;;;;;;;1747751;79;21042;-65
2022/10/31 06:39:44;;;;;;;1.55;1.20;;;;;;;;;;1739216;80;21044;-65
2022/10/31 06:42:11;;;;;;;2.10;1.37;;;;;;;;;;1744447;80;21140;-66
2022/10/31 06:44:37;;;;;;;2.22;1.30;;;;;;;;;;1715288;81;21019;-65
2022/10/31 06:47:23;;;;;;;1.92;1.22;;;;;;;;;;1737459;80;21043;-66
2022/10/31 06:50:03;;;;;;;1.55;1.25;;;;;;;;;;1743013;80;22153;-66
2022/10/31 06:52:30;;;;;;;3.33;1.27;;;;;;;;;;1761365;80;21047;-66
2022/10/31 06:54:56;;;;;;;2.02;1.20;;;;;;;;;;1742165;80;21016;-66
2022/10/31 06:57:23;;;;;;;2.35;1.40;;;;;;;;;;1725308;80;21029;-66
2022/10/31 06:59:49;;;;;;;1.72;1.22;;;;;;;;;;1766817;80;21027;-66
2022/10/31 07:02:17;;;;;;;1.75;1.30;;;;;;;;;;1762032;80;21067;-67
2022/10/31 07:04:43;;;;;;;3.10;1.42;;;;;;;;;;1743297;80;21610;-66
2022/10/31 07:07:11;;;;;;;2.33;1.20;;;;;;;;;;1735223;79;21100;-67
2022/10/31 07:09:40;;;;;;;1.77;1.22;;;;;;;;;;1764601;79;21123;-66
2022/10/31 07:12:09;;;;;;;5.08;1.42;;;;;;;;;;1740993;80;22138;-66
2022/10/31 07:14:38;;;;;;;2.02;1.35;;;;;;;;;;1711948;82;21562;-68
2022/10/31 07:17:05;;;;;;;1.98;1.02;;;;;;;;;;1690379;81;21038;-66
2022/10/31 07:19:34;;;;;;;1.67;1.30;;;;;;;;;;1703458;82;21002;-67
2022/10/31 07:22:02;;;;;;;2.37;1.80;;;;;;;;;;1685511;83;21065;-66
2022/10/31 07:24:30;;;;;;;1.87;1.25;;;;;;;;;;1712244;81;21056;-66
2022/10/31 07:27:14;;;;;;;4.97;1.30;;;;;;;;;;1746928;80;21032;-66
2022/10/31 07:29:43;;;;;;;2.58;1.37;;;;;;;;;;1748132;79;20996;-66
2022/10/31 07:32:09;;;;;;;1.62;1.30;;;;;;;;;;1746121;79;21147;-66
2022/10/31 07:34:37;;;;;;;2.75;1.30;;;;;;;;;;1739046;80;21099;-66
2022/10/31 07:37:18;;;;;;;4.15;1.87;;;;;;;;;;1729753;80;21100;-65
2022/10/31 07:39:44;;;;;;;4.65;1.77;;;;;;;;;;1747611;79;21099;-65
2022/10/31 07:42:11;;;;;;;5.15;2.95;;;;;;;;;;1750594;79;21063;-65
2022/10/31 07:44:39;;;;;;;6.28;3.77;;;;;;;;;;1757191;79;21083;-66
2022/10/31 07:48:13;;;;;;;3.05;1.85;;;;;;;;;;1806206;78;23696;-67
2022/10/31 07:50:58;;;;;;;4.03;2.00;;;;;;;;;;1759773;80;21036;-66
2022/10/31 07:53:43;;;;;;;3.10;1.22;;;;;;;;;;1767995;80;20997;-67
2022/10/31 07:56:15;;;;;;;2.60;1.80;;;;;;;;;;1765851;80;21024;-66
2022/10/31 07:58:42;;;;;;;2.95;1.40;;;;;;;;;;1763667;80;21013;-68
2022/10/31 08:01:08;;;;;;;5.08;2.25;;;;;;;;;;1767735;80;21009;-65
2022/10/31 08:03:36;;;;;;;4.42;1.67;;;;;;;;;;1767270;80;21044;-65
2022/10/31 08:06:25;;;;;;;2.10;1.70;;;;;;;;;;1760814;80;21103;-70
2022/10/31 08:09:10;;;;;;;3.17;2.00;;;;;;;;;;1765473;80;21522;-67
2022/10/31 08:11:36;;;;;;;4.42;1.98;;;;;;;;;;1768865;80;21019;-66
2022/10/31 08:14:03;;;;;;;3.00;1.40;;;;;;;;;;1761903;80;21035;-65
2022/10/31 08:16:31;;;;;;;1.72;1.40;;;;;;;;;;1767065;80;21490;-67
2022/10/31 08:19:01;;;;;;;2.85;1.40;;;;;;;;;;1764151;80;21039;-66
2022/10/31 08:21:29;;;;;;;2.83;1.80;;;;;;;;;;1769812;80;21043;-66
2022/10/31 08:23:57;;;;;;;2.15;1.52;;;;;;;;;;1760162;80;20993;-67
2022/10/31 08:26:23;;;;;;;3.40;1.40;;;;;;;;;;1771423;80;21003;-66
2022/10/31 08:28:51;;;;;;;3.05;1.77;;;;;;;;;;1777634;80;21016;-65
2022/10/31 08:31:19;;;;;;;2.22;1.70;;;;;;;;;;1796117;80;21085;-65
2022/10/31 08:33:47;;;;;;;2.90;1.50;;;;;;;;;;1774743;80;21028;-65
2022/10/31 08:36:19;;;;;;;2.45;1.35;;;;;;;;;;1770555;80;21023;-68
2022/10/31 08:39:04;;;;;;;2.22;1.37;;;;;;;;;;1765924;80;21518;-66
2022/10/31 08:41:30;;;;;;;2.72;1.42;;;;;;;;;;1766109;80;20984;-65
2022/10/31 08:43:57;;;;;;;2.77;1.30;;;;;;;;;;1764632;80;21035;-65
2022/10/31 08:46:23;;;;;;;1.47;1.10;;;;;;;;;;1776236;80;21119;-65
2022/10/31 08:48:50;;;;;;;1.37;1.20;;;;;;;;;;1760100;80;21011;-65
2022/10/31 08:51:17;;;;;;;2.55;1.30;;;;;;;;;;1762831;80;21024;-66
2022/10/31 08:53:43;;;;;;;1.40;1.30;;;;;;;;;;1772535;80;21028;-66
2022/10/31 08:56:12;;;;;;;2.27;1.40;;;;;;;;;;1740796;80;21172;-65
2022/10/31 08:58:38;;;;;;;1.67;1.22;;;;;;;;;;1766510;80;21031;-65
2022/10/31 09:01:05;;;;;;;2.12;1.30;;;;;;;;;;1757128;80;21011;-65
2022/10/31 09:03:34;;;;;;;4.00;2.00;;;;;;;;;;1758877;80;21068;-65
2022/10/31 09:06:02;;;;;;;1.52;1.20;;;;;;;;;;1773891;80;21126;-65
2022/10/31 09:08:29;;;;;;;1.40;1.30;;;;;;;;;;1754374;80;21046;-65
2022/10/31 09:10:56;;;;;;;2.45;1.40;;;;;;;;;;1755693;80;21156;-65
2022/10/31 09:13:26;;;;;;;1.42;1.12;;;;;;;;;;1729535;80;21044;-66
2022/10/31 09:16:03;;;;;;;2.00;1.30;;;;;;;;;;1742278;80;21031;-65
2022/10/31 09:18:31;;;;;;;4.90;1.32;;;;;;;;;;1752463;80;21102;-65
2022/10/31 09:20:59;;;;;;;1.50;1.10;;;;;;;;;;1756107;80;21091;-65
2022/10/31 09:23:26;;;;;;;1.75;1.12;;;;;;;;;;1750740;80;20980;-65
2022/10/31 09:25:54;;;;;;;2.08;1.12;;;;;;;;;;1761466;80;21114;-65
2022/10/31 09:28:22;;;;;;;1.60;1.15;;;;;;;;;;1759813;80;21047;-64
2022/10/31 09:30:51;;;;;;;2.08;1.17;;;;;;;;;;1766493;80;21027;-65
2022/10/31 09:33:20;;;;;;;3.25;1.10;;;;;;;;;;1767894;80;21673;-65
2022/10/31 09:35:48;;;;;;;1.35;1.10;;;;;;;;;;1760998;80;21461;-65
2022/10/31 09:38:15;;;;;;;1.20;0.93;;;;;;;;;;1759176;80;21591;-65
2022/10/31 09:40:43;;;;;;;1.90;1.20;;;;;;;;;;1757635;80;22330;-66
2022/10/31 09:43:12;;;;;;;2.12;1.30;;;;;;;;;;1760495;80;21562;-67
2022/10/31 09:45:44;;;;;;;1.85;1.20;;;;;;;;;;1752782;80;21225;-66
2022/10/31 09:48:23;;;;;;;1.73;1.20;;;;;;;;;;1758037;80;21096;-64
2022/10/31 09:51:06;;;;;;;2.08;1.32;;;;;;;;;;1709852;80;21060;-65
2022/10/31 09:53:47;;;;;;;1.52;1.30;;;;;;;;;;1758198;80;21003;-65
2022/10/31 09:56:17;;;;;;;1.90;1.23;;;;;;;;;;1755230;80;21095;-65
2022/10/31 09:58:45;;;;;;;2.02;1.30;;;;;;;;;;1758894;80;21095;-65
2022/10/31 10:01:20;;;;;;;1.47;1.30;;;;;;;;;;1754473;80;21060;-65
2022/10/31 10:03:47;;;;;;;1.10;1.00;;;;;;;;;;1751050;81;22235;-65
2022/10/31 10:06:32;;;;;;;1.57;1.17;;;;;;;;;;1727137;81;21079;-65
2022/10/31 10:09:18;;;;;;;2.33;1.10;;;;;;;;;;1751572;81;21040;-66
2022/10/31 10:12:10;;;;;;;3.42;1.00;;;;;;;;;;1752685;81;21051;-65
2022/10/31 10:14:41;;;;;;;1.00;1.00;;;;;;;;;;1741152;82;21033;-66
2022/10/31 10:17:14;;;;;;;1.67;1.30;;;;;;;;;;1746862;82;21064;-66
2022/10/31 10:19:55;;;;;;;2.42;1.00;;;;;;;;;;1700721;81;21147;-66
2022/10/31 10:22:23;;;;;;;1.12;1.02;;;;;;;;;;1752723;81;21051;-66
2022/10/31 10:24:51;;;;;;;3.72;1.42;;;;;;;;;;1748583;81;21463;-65
2022/10/31 10:27:25;;;;;;;2.42;1.12;;;;;;;;;;1762925;81;22059;-66
2022/10/31 10:30:02;;;;;;;1.35;1.00;;;;;;;;;;1760086;81;21036;-66
2022/10/31 10:32:29;;;;;;;2.27;1.20;;;;;;;;;;1751906;80;21043;-65
2022/10/31 10:34:57;;;;;;;2.08;1.22;;;;;;;;;;1743379;80;21107;-65
2022/10/31 10:37:28;;;;;;;1.60;1.15;;;;;;;;;;1741197;80;21126;-66
2022/10/31 10:39:56;;;;;;;1.67;1.20;;;;;;;;;;1744499;80;21103;-66
2022/10/31 10:48:01;;;;;;;1.07;0.90;;;;;;;;;;1745612;80;21554;-65
2022/10/31 10:50:29;;;;;;;1.55;1.10;;;;;;;;;;1752891;80;21079;-65
2022/10/31 10:53:10;;;;;;;2.45;1.35;;;;;;;;;;1748773;80;21097;-66
2022/10/31 10:55:42;;;;;;;2.20;1.17;;;;;;;;;;1745707;80;22126;-65
2022/10/31 10:58:09;;;;;;;2.65;1.30;;;;;;;;;;1751566;80;21103;-66
2022/10/31 11:00:40;;;;;;;2.52;1.17;;;;;;;;;;1768161;81;21000;-68
2022/10/31 11:03:06;;;;;;;1.35;1.25;;;;;;;;;;1752205;81;21039;-66
2022/10/31 11:05:37;;;;;;;1.72;1.15;;;;;;;;;;1760799;81;21610;-65
2022/10/31 11:08:03;;;;;;;1.17;1.00;;;;;;;;;;1764296;81;21054;-67
2022/10/31 11:10:33;;;;;;;1.17;1.07;;;;;;;;;;1756584;81;21071;-67
2022/10/31 11:13:06;;;;;;;2.10;1.30;;;;;;;;;;1759129;81;21042;-66
2022/10/31 11:15:38;;;;;;;1.52;1.10;;;;;;;;;;1756350;81;21023;-66
2022/10/31 11:18:04;;;;;;;2.45;1.00;;;;;;;;;;1755559;81;20992;-67
2022/10/31 11:20:35;;;;;;;1.95;1.30;;;;;;;;;;1767829;81;21024;-65
2022/10/31 11:23:05;;;;;;;1.50;1.07;;;;;;;;;;1759152;81;21003;-67
2022/10/31 11:25:31;;;;;;;1.32;1.10;;;;;;;;;;1722314;83;20975;-67
2022/10/31 11:28:00;;;;;;;2.22;1.10;;;;;;;;;;1737657;82;21068;-65
2022/10/31 11:30:26;;;;;;;1.60;1.02;;;;;;;;;;1718650;82;21092;-65
2022/10/31 11:32:52;;;;;;;2.22;1.27;;;;;;;;;;1718053;82;21005;-65
2022/10/31 11:35:19;;;;;;;2.85;1.27;;;;;;;;;;1726481;82;21020;-65
2022/10/31 11:37:45;;;;;;;1.90;1.02;;;;;;;;;;1718805;83;21005;-65
2022/10/31 11:40:16;;;;;;;1.62;1.10;;;;;;;;;;1718809;83;21063;-65
2022/10/31 11:42:42;;;;;;;1.62;1.05;;;;;;;;;;1719011;83;21040;-67
2022/10/31 11:45:10;;;;;;;2.67;1.60;;;;;;;;;;1689665;83;21078;-64
2022/10/31 11:47:36;;;;;;;1.52;1.05;;;;;;;;;;1691488;83;21116;-64
2022/10/31 11:50:05;;;;;;;1.82;1.15;;;;;;;;;;1710311;82;21559;-65
2022/10/31 11:52:31;;;;;;;1.10;1.00;;;;;;;;;;1704042;82;21079;-66
2022/10/31 11:55:11;;;;;;;0.75;0.75;;;;;;;;;;1717603;82;21054;-64
2022/10/31 11:57:45;;;;;;;2.02;1.30;;;;;;;;;;1714248;83;21114;-65
2022/10/31 12:00:30;;;;;;;2.08;1.20;;;;;;;;;;1717087;82;21033;-65
2022/10/31 12:03:13;;;;;;;1.27;1.17;;;;;;;;;;1691445;84;21022;-65
2022/10/31 12:05:39;;;;;;;1.75;1.20;;;;;;;;;;1757840;81;21551;-65
2022/10/31 12:08:07;;;;;;;3.35;1.62;;;;;;;;;;1757177;81;21048;-66
2022/10/31 12:10:37;;;;;;;1.25;1.07;;;;;;;;;;1720613;82;21577;-65
2022/10/31 12:13:13;;;;;;;1.35;1.10;;;;;;;;;;1747602;81;21102;-65
2022/10/31 12:15:41;;;;;;;3.87;1.52;;;;;;;;;;1751644;81;20985;-64
2022/10/31 12:18:18;;;;;;;1.40;1.20;;;;;;;;;;1763857;81;21608;-68
2022/10/31 12:20:46;;;;;;;5.58;3.17;;;;;;;;;;1752601;81;21071;-65
2022/10/31 12:23:26;;;;;;;4.67;3.37;;;;;;;;;;1754733;81;21027;-66
2022/10/31 12:25:57;;;;;;;2.50;1.45;;;;;;;;;;1733515;80;21023;-64
2022/10/31 12:28:42;;;;;;;2.85;1.37;;;;;;;;;;1744774;81;21096;-66
2022/10/31 12:31:10;;;;;;;2.08;1.65;;;;;;;;;;1757323;81;22226;-65
2022/10/31 12:33:55;;;;;;;3.95;2.65;;;;;;;;;;1749812;81;21112;-66
2022/10/31 12:36:40;;;;;;;1.52;1.20;;;;;;;;;;1747163;82;21060;-65
2022/10/31 12:39:25;;;;;;;2.00;1.42;;;;;;;;;;1767150;81;21016;-65
2022/10/31 12:41:56;;;;;;;1.40;1.30;;;;;;;;;;1771432;81;21055;-66
2022/10/31 12:44:28;;;;;;;2.15;1.20;;;;;;;;;;1715511;81;22277;-65
2022/10/31 12:47:02;;;;;;;1.55;0.90;;;;;;;;;;1762951;81;21110;-66
2022/10/31 12:49:33;;;;;;;1.57;1.10;;;;;;;;;;1750084;81;21099;-66
2022/10/31 12:52:04;;;;;;;1.07;1.00;;;;;;;;;;1750606;81;21093;-66
2022/10/31 12:54:32;;;;;;;1.40;1.10;;;;;;;;;;1753902;81;21067;-66
2022/10/31 12:57:17;;;;;;;2.52;1.30;;;;;;;;;;1752574;81;21610;-65
2022/10/31 12:59:44;;;;;;;2.00;1.50;;;;;;;;;;1756487;81;21053;-66
2022/10/31 13:02:22;;;;;;;1.87;1.30;;;;;;;;;;1747134;82;21555;-66
2022/10/31 13:04:50;;;;;;;3.08;1.52;;;;;;;;;;1747594;81;21111;-66
2022/10/31 13:07:30;;;;;;;1.50;1.22;;;;;;;;;;1744531;81;21034;-65
2022/10/31 13:10:00;;;;;;;1.47;1.20;;;;;;;;;;1750850;81;21036;-66
2022/10/31 13:12:27;;;;;;;1.55;1.20;;;;;;;;;;1749373;81;21003;-65
2022/10/31 13:15:00;;;;;;;2.95;1.27;;;;;;;;;;1751249;81;21020;-66
2022/10/31 13:17:39;;;;;;;2.02;1.40;;;;;;;;;;1752344;81;21051;-66
2022/10/31 13:20:17;;;;;;;2.27;1.25;;;;;;;;;;1737221;81;21048;-66
2022/10/31 13:22:44;;;;;;;2.08;1.37;;;;;;;;;;1723435;83;21020;-66
2022/10/31 13:25:11;;;;;;;2.05;1.30;;;;;;;;;;1723195;82;21075;-65
2022/10/31 13:27:39;;;;;;;2.17;1.40;;;;;;;;;;1757294;80;21507;-64
2022/10/31 13:30:08;;;;;;;2.00;1.30;;;;;;;;;;1754154;81;21932;-65
2022/10/31 13:32:39;;;;;;;2.42;1.10;;;;;;;;;;1744589;82;21021;-65
2022/10/31 13:35:07;;;;;;;6.85;2.00;;;;;;;;;;1756341;81;21629;-65
2022/10/31 13:37:38;;;;;;;1.77;1.20;;;;;;;;;;1750105;82;21092;-65
2022/10/31 13:40:15;;;;;;;1.25;1.07;;;;;;;;;;1750384;81;21012;-66
2022/10/31 13:42:53;;;;;;;1.55;1.10;;;;;;;;;;1760623;81;21702;-67
2022/10/31 13:45:24;;;;;;;3.33;1.30;;;;;;;;;;1753793;81;22123;-65
2022/10/31 13:48:00;;;;;;;2.15;1.60;;;;;;;;;;1762946;81;21067;-65
2022/10/31 13:50:30;;;;;;;1.87;1.50;;;;;;;;;;1757873;81;21017;-66
2022/10/31 13:53:12;;;;;;;3.90;1.70;;;;;;;;;;1758893;81;21034;-66
2022/10/31 13:55:48;;;;;;;4.08;1.70;;;;;;;;;;1759688;81;21555;-65
2022/10/31 13:58:23;;;;;;;2.52;1.80;;;;;;;;;;1759627;81;21039;-65
2022/10/31 14:01:08;;;;;;;2.67;1.77;;;;;;;;;;1757504;81;21511;-66
2022/10/31 14:03:35;;;;;;;2.58;1.72;;;;;;;;;;1764539;81;21099;-65
2022/10/31 14:06:01;;;;;;;3.83;1.60;;;;;;;;;;1754346;81;22122;-66
2022/10/31 14:08:27;;;;;;;2.30;1.67;;;;;;;;;;1757581;80;21055;-65
2022/10/31 14:10:54;;;;;;;2.70;1.95;;;;;;;;;;1761421;81;20994;-66
2022/10/31 14:13:22;;;;;;;4.47;2.10;;;;;;;;;;1758387;81;21059;-66
2022/10/31 14:15:59;;;;;;;3.33;1.50;;;;;;;;;;1758996;81;20984;-67
2022/10/31 14:18:35;;;;;;;3.67;1.60;;;;;;;;;;1758989;81;20984;-65
2022/10/31 14:21:01;;;;;;;3.83;1.72;;;;;;;;;;1753120;81;20972;-65
2022/10/31 14:23:32;;;;;;;3.62;2.05;;;;;;;;;;1757940;80;21023;-65
2022/10/31 14:26:17;;;;;;;4.37;1.87;;;;;;;;;;1757851;80;21028;-66
2022/10/31 14:28:43;;;;;;;3.95;2.10;;;;;;;;;;1759794;81;20960;-66
2022/10/31 14:31:35;;;;;;;7.62;2.47;;;;;;;;;;1760844;80;21565;-67
2022/10/31 14:34:01;;;;;;;4.22;2.40;;;;;;;;;;1750047;80;21400;-66
2022/10/31 14:36:29;;;;;;;6.25;2.90;;;;;;;;;;1747699;80;21086;-65
2022/10/31 14:39:07;;;;;;;3.42;2.27;;;;;;;;;;1747471;80;21052;-65
2022/10/31 14:41:41;;;;;;;4.20;2.20;;;;;;;;;;1751453;80;21066;-66
2022/10/31 14:44:16;;;;;;;3.25;2.05;;;;;;;;;;1747805;80;21134;-66
2022/10/31 14:47:01;;;;;;;2.80;1.65;;;;;;;;;;1753604;80;21035;-66
2022/10/31 14:49:38;;;;;;;5.80;2.12;;;;;;;;;;1744693;80;21573;-65
2022/10/31 14:52:05;;;;;;;4.40;1.95;;;;;;;;;;1743389;80;21043;-64
2022/10/31 14:54:36;;;;;;;4.20;3.00;;;;;;;;;;1716145;80;21460;-67
2022/10/31 14:57:04;;;;;;;4.08;2.10;;;;;;;;;;1741786;80;21222;-67
2022/10/31 14:59:31;;;;;;;5.45;1.95;;;;;;;;;;1742437;80;21430;-66
2022/10/31 15:02:11;;;;;;;2.17;1.62;;;;;;;;;;1746262;80;21502;-65
2022/10/31 15:04:39;;;;;;;4.60;1.92;;;;;;;;;;1739808;80;21034;-67
2022/10/31 15:07:08;;;;;;;7.10;3.08;;;;;;;;;;1740604;80;21177;-65
2022/10/31 15:09:42;;;;;;;8.65;5.10;;;;;;;;;;1736606;80;21032;-67
2022/10/31 15:12:25;;;;;;;17.05;8.90;;;;;;;;;;1744945;80;21092;-67
2022/10/31 15:14:53;;;;;;;11.95;4.90;;;;;;;;;;1743110;80;21139;-65